createdAt,value
2019-01-15T00:00:24.080Z,21.26
2019-01-15T00:00:55.706Z,21.26
2019-01-15T00:01:27.326Z,21.27
2019-01-15T00:01:58.939Z,21.28
2019-01-15T00:02:30.577Z,21.29
2019-01-15T00:03:02.191Z,21.29
2019-01-15T00:03:33.804Z,21.30
2019-01-15T00:04:05.404Z,21.29
2019-01-15T00:04:37.040Z,21.29
2019-01-15T00:05:08.697Z,21.29
2019-01-15T00:05:40.332Z,21.29
2019-01-15T00:06:11.936Z,21.29
2019-01-15T00:06:43.528Z,21.29
2019-01-15T00:07:15.158Z,21.28
2019-01-15T00:07:46.779Z,21.27
2019-01-15T00:08:18.394Z,21.27
2019-01-15T00:08:49.993Z,21.25
2019-01-15T00:09:21.617Z,21.14
2019-01-15T00:09:53.230Z,21.24
2019-01-15T00:10:24.882Z,21.23
2019-01-15T00:10:56.486Z,21.22
2019-01-15T00:11:28.099Z,21.20
2019-01-15T00:11:59.721Z,21.22
2019-01-15T00:12:31.401Z,21.21
2019-01-15T00:13:03.000Z,21.21
2019-01-15T00:13:34.615Z,21.21
2019-01-15T00:14:06.254Z,21.20
2019-01-15T00:14:37.866Z,21.20
2019-01-15T00:15:09.519Z,21.22
2019-01-15T00:15:41.138Z,21.26
2019-01-15T00:16:12.780Z,21.21
2019-01-15T00:16:44.400Z,21.18
2019-01-15T00:17:16.032Z,21.14
2019-01-15T00:17:47.639Z,21.10
2019-01-15T00:18:19.249Z,21.04
2019-01-15T00:18:50.870Z,21.03
2019-01-15T00:19:22.489Z,21.04
2019-01-15T00:19:54.152Z,21.05
2019-01-15T00:20:25.777Z,21.05
2019-01-15T00:20:57.443Z,21.06
2019-01-15T00:21:29.065Z,21.07
2019-01-15T00:22:00.665Z,21.08
2019-01-15T00:22:32.261Z,21.06
2019-01-15T00:23:03.898Z,21.07
2019-01-15T00:23:35.502Z,21.09
2019-01-15T00:24:07.119Z,21.09
2019-01-15T00:24:38.735Z,21.09
2019-01-15T00:25:10.352Z,21.11
2019-01-15T00:25:41.958Z,21.10
2019-01-15T00:26:13.593Z,21.10
2019-01-15T00:26:45.196Z,21.09
2019-01-15T00:27:16.803Z,21.08
2019-01-15T00:27:48.423Z,21.08
2019-01-15T00:28:20.056Z,21.07
2019-01-15T00:28:51.725Z,21.06
2019-01-15T00:29:23.339Z,21.06
2019-01-15T00:29:54.947Z,21.07
2019-01-15T00:30:26.554Z,21.07
2019-01-15T00:30:58.156Z,21.08
2019-01-15T00:31:29.782Z,21.08
2019-01-15T00:32:01.397Z,21.09
2019-01-15T00:32:33.011Z,21.08
2019-01-15T00:33:04.636Z,21.09
2019-01-15T00:33:36.255Z,21.09
2019-01-15T00:34:07.920Z,20.97
2019-01-15T00:34:39.546Z,21.09
2019-01-15T00:35:11.158Z,21.11
2019-01-15T00:35:42.774Z,21.09
2019-01-15T00:36:14.382Z,21.09
2019-01-15T00:36:46.005Z,21.09
2019-01-15T00:37:17.613Z,21.10
2019-01-15T00:37:49.231Z,21.10
2019-01-15T00:38:20.842Z,21.11
2019-01-15T00:38:52.439Z,21.11
2019-01-15T00:39:24.112Z,21.10
2019-01-15T00:39:55.709Z,21.10
2019-01-15T00:40:27.308Z,21.09
2019-01-15T00:40:58.923Z,21.07
2019-01-15T00:41:30.539Z,21.07
2019-01-15T00:42:02.150Z,21.08
2019-01-15T00:42:33.751Z,21.08
2019-01-15T00:43:05.352Z,21.07
2019-01-15T00:43:36.968Z,21.10
2019-01-15T00:44:08.564Z,21.13
2019-01-15T00:44:40.229Z,21.15
2019-01-15T00:45:11.836Z,21.15
2019-01-15T00:45:43.443Z,21.17
2019-01-15T00:46:15.046Z,21.16
2019-01-15T00:46:46.664Z,21.16
2019-01-15T00:47:18.274Z,21.17
2019-01-15T00:47:49.914Z,21.18
2019-01-15T00:48:21.533Z,21.18
2019-01-15T00:48:53.162Z,21.07
2019-01-15T00:49:24.753Z,21.19
2019-01-15T00:49:56.399Z,21.19
2019-01-15T00:50:28.000Z,21.18
2019-01-15T00:50:59.606Z,21.18
2019-01-15T00:51:31.217Z,21.18
2019-01-15T00:52:02.836Z,21.18
2019-01-15T00:52:34.442Z,21.18
2019-01-15T00:53:06.042Z,21.17
2019-01-15T00:53:37.674Z,21.16
2019-01-15T00:54:09.296Z,21.18
2019-01-15T00:54:40.910Z,21.18
2019-01-15T00:55:12.514Z,21.18
2019-01-15T00:55:44.122Z,21.18
2019-01-15T00:56:15.737Z,21.17
2019-01-15T00:56:47.341Z,21.17
2019-01-15T00:57:18.936Z,21.15
2019-01-15T00:57:50.600Z,21.17
2019-01-15T00:58:22.224Z,21.16
2019-01-15T00:58:53.844Z,21.16
2019-01-15T00:59:25.458Z,21.16
2019-01-15T00:59:57.058Z,21.16
2019-01-15T01:00:28.663Z,21.15
2019-01-15T01:01:00.320Z,21.15
2019-01-15T01:01:31.937Z,21.14
2019-01-15T01:02:03.556Z,21.14
2019-01-15T01:02:35.167Z,21.15
2019-01-15T01:03:06.784Z,21.15
2019-01-15T01:03:38.413Z,21.14
2019-01-15T01:04:10.024Z,21.14
2019-01-15T01:04:41.645Z,21.14
2019-01-15T01:05:13.250Z,21.14
2019-01-15T01:05:44.863Z,21.13
2019-01-15T01:06:16.520Z,21.11
2019-01-15T01:06:48.148Z,21.13
2019-01-15T01:07:19.740Z,21.13
2019-01-15T01:07:51.353Z,21.13
2019-01-15T01:08:22.966Z,21.13
2019-01-15T01:08:54.574Z,21.12
2019-01-15T01:09:26.176Z,21.11
2019-01-15T01:09:57.782Z,21.12
2019-01-15T01:10:29.377Z,21.13
2019-01-15T01:11:01.039Z,21.13
2019-01-15T01:11:32.653Z,21.14
2019-01-15T01:12:04.275Z,21.12
2019-01-15T01:12:35.891Z,21.12
2019-01-15T01:13:07.502Z,21.12
2019-01-15T01:13:39.142Z,21.11
2019-01-15T01:14:10.796Z,21.10
2019-01-15T01:14:42.416Z,21.12
2019-01-15T01:15:14.031Z,21.12
2019-01-15T01:15:45.656Z,21.11
2019-01-15T01:16:17.249Z,21.11
2019-01-15T01:16:48.841Z,21.12
2019-01-15T01:17:20.446Z,21.10
2019-01-15T01:17:52.054Z,21.09
2019-01-15T01:18:23.640Z,21.10
2019-01-15T01:18:55.274Z,21.10
2019-01-15T01:19:26.888Z,21.10
2019-01-15T01:19:58.508Z,21.10
2019-01-15T01:20:30.096Z,21.10
2019-01-15T01:21:01.717Z,21.11
2019-01-15T01:21:33.336Z,21.10
2019-01-15T01:22:04.942Z,21.08
2019-01-15T01:22:36.556Z,21.11
2019-01-15T01:23:08.163Z,21.11
2019-01-15T01:23:39.810Z,21.10
2019-01-15T01:24:11.429Z,21.12
2019-01-15T01:24:43.038Z,21.11
2019-01-15T01:25:14.624Z,21.14
2019-01-15T01:25:46.231Z,21.13
2019-01-15T01:26:17.834Z,21.11
2019-01-15T01:26:49.438Z,21.12
2019-01-15T01:27:21.038Z,21.11
2019-01-15T01:27:52.719Z,21.10
2019-01-15T01:28:24.340Z,21.10
2019-01-15T01:28:55.945Z,21.10
2019-01-15T01:29:27.540Z,21.12
2019-01-15T01:29:59.165Z,21.12
2019-01-15T01:30:30.779Z,21.13
2019-01-15T01:31:02.406Z,21.14
2019-01-15T01:31:34.019Z,21.14
2019-01-15T01:32:05.640Z,21.15
2019-01-15T01:32:37.254Z,21.13
2019-01-15T01:33:08.894Z,21.13
2019-01-15T01:33:40.502Z,21.13
2019-01-15T01:34:12.167Z,21.13
2019-01-15T01:34:43.823Z,21.13
2019-01-15T01:35:15.411Z,21.12
2019-01-15T01:35:47.027Z,21.11
2019-01-15T01:36:18.629Z,21.11
2019-01-15T01:36:50.239Z,21.13
2019-01-15T01:37:21.894Z,21.13
2019-01-15T01:37:53.498Z,21.13
2019-01-15T01:38:25.095Z,21.15
2019-01-15T01:38:56.742Z,21.14
2019-01-15T01:39:28.342Z,21.13
2019-01-15T01:39:59.964Z,21.13
2019-01-15T01:40:31.585Z,21.13
2019-01-15T01:41:03.207Z,21.10
2019-01-15T01:41:34.818Z,21.10
2019-01-15T01:42:06.426Z,21.09
2019-01-15T01:42:38.026Z,21.08
2019-01-15T01:43:09.638Z,21.07
2019-01-15T01:43:41.295Z,21.06
2019-01-15T01:44:12.902Z,21.07
2019-01-15T01:44:44.516Z,21.06
2019-01-15T01:45:16.124Z,21.06
2019-01-15T01:45:47.726Z,21.04
2019-01-15T01:46:19.370Z,21.04
2019-01-15T01:46:50.988Z,21.03
2019-01-15T01:47:22.598Z,21.03
2019-01-15T01:47:54.193Z,21.03
2019-01-15T01:48:25.784Z,21.02
2019-01-15T01:48:57.434Z,21.02
2019-01-15T01:49:29.038Z,21.01
2019-01-15T01:50:00.686Z,21.01
2019-01-15T01:50:32.294Z,20.99
2019-01-15T01:51:03.904Z,20.99
2019-01-15T01:51:35.527Z,21.00
2019-01-15T01:52:07.144Z,21.00
2019-01-15T01:52:38.754Z,20.99
2019-01-15T01:53:10.415Z,20.99
2019-01-15T01:53:42.021Z,20.98
2019-01-15T01:54:13.626Z,20.98
2019-01-15T01:54:45.249Z,20.98
2019-01-15T01:55:16.855Z,20.98
2019-01-15T01:55:48.472Z,20.99
2019-01-15T01:56:20.097Z,20.99
2019-01-15T01:56:51.703Z,20.98
2019-01-15T01:57:23.292Z,20.97
2019-01-15T01:57:54.955Z,20.97
2019-01-15T01:58:26.571Z,20.94
2019-01-15T01:58:58.169Z,20.94
2019-01-15T01:59:29.789Z,20.95
2019-01-15T02:00:01.383Z,20.96
2019-01-15T02:00:33.005Z,20.98
2019-01-15T02:01:04.623Z,20.97
2019-01-15T02:01:36.238Z,20.97
2019-01-15T02:02:07.871Z,20.94
2019-01-15T02:02:39.491Z,20.96
2019-01-15T02:03:11.165Z,20.96
2019-01-15T02:03:42.770Z,20.96
2019-01-15T02:04:14.388Z,20.95
2019-01-15T02:04:45.991Z,20.96
2019-01-15T02:05:17.647Z,20.96
2019-01-15T02:05:49.254Z,20.97
2019-01-15T02:06:20.852Z,20.96
2019-01-15T02:06:52.465Z,20.96
2019-01-15T02:07:24.065Z,20.97
2019-01-15T02:07:55.674Z,20.96
2019-01-15T02:08:27.279Z,20.94
2019-01-15T02:08:58.936Z,20.94
2019-01-15T02:09:30.546Z,20.95
2019-01-15T02:10:02.190Z,20.96
2019-01-15T02:10:33.798Z,20.95
2019-01-15T02:11:05.416Z,20.96
2019-01-15T02:11:37.078Z,20.97
2019-01-15T02:12:08.682Z,20.95
2019-01-15T02:12:40.349Z,20.96
2019-01-15T02:13:11.962Z,20.96
2019-01-15T02:13:44.790Z,20.97
2019-01-15T02:14:15.242Z,20.98
2019-01-15T02:14:46.852Z,20.98
2019-01-15T02:15:18.516Z,20.99
2019-01-15T02:15:50.122Z,20.98
2019-01-15T02:16:21.741Z,20.98
2019-01-15T02:16:53.392Z,20.99
2019-01-15T02:17:25.007Z,20.98
2019-01-15T02:17:56.619Z,21.00
2019-01-15T02:18:28.224Z,21.00
2019-01-15T02:18:59.848Z,21.00
2019-01-15T02:19:31.469Z,21.00
2019-01-15T02:20:03.078Z,21.00
2019-01-15T02:20:34.682Z,21.00
2019-01-15T02:21:06.282Z,20.99
2019-01-15T02:21:37.869Z,21.00
2019-01-15T02:22:09.478Z,21.00
2019-01-15T02:22:41.111Z,20.82
2019-01-15T02:23:12.732Z,20.98
2019-01-15T02:23:44.338Z,20.99
2019-01-15T02:24:15.944Z,20.99
2019-01-15T02:24:47.542Z,20.99
2019-01-15T02:25:19.164Z,20.98
2019-01-15T02:25:50.770Z,20.99
2019-01-15T02:26:22.369Z,21.00
2019-01-15T02:26:53.965Z,21.00
2019-01-15T02:27:25.610Z,20.99
2019-01-15T02:27:57.231Z,20.99
2019-01-15T02:28:28.853Z,20.99
2019-01-15T02:29:00.445Z,20.99
2019-01-15T02:29:32.050Z,21.00
2019-01-15T02:30:03.661Z,20.99
2019-01-15T02:30:35.277Z,20.98
2019-01-15T02:31:06.946Z,20.98
2019-01-15T02:31:38.544Z,20.99
2019-01-15T02:32:10.150Z,21.00
2019-01-15T02:32:41.758Z,20.77
2019-01-15T02:33:13.359Z,21.00
2019-01-15T02:33:45.026Z,21.00
2019-01-15T02:34:16.692Z,20.98
2019-01-15T02:34:48.305Z,20.98
2019-01-15T02:35:19.911Z,20.99
2019-01-15T02:35:51.536Z,20.99
2019-01-15T02:36:23.154Z,20.99
2019-01-15T02:36:54.766Z,21.00
2019-01-15T02:37:26.376Z,21.01
2019-01-15T02:37:58.000Z,21.01
2019-01-15T02:38:29.620Z,21.01
2019-01-15T02:39:01.287Z,21.01
2019-01-15T02:39:32.908Z,21.02
2019-01-15T02:40:04.526Z,21.02
2019-01-15T02:40:36.139Z,21.02
2019-01-15T02:41:07.756Z,21.01
2019-01-15T02:41:39.381Z,21.00
2019-01-15T02:42:10.990Z,21.00
2019-01-15T02:42:46.671Z,20.98
2019-01-15T02:43:14.269Z,20.97
2019-01-15T02:43:45.895Z,20.98
2019-01-15T02:44:17.545Z,20.97
2019-01-15T02:44:49.133Z,20.96
2019-01-15T02:45:20.790Z,20.95
2019-01-15T02:45:52.404Z,20.95
2019-01-15T02:46:24.029Z,20.95
2019-01-15T02:46:55.670Z,20.95
2019-01-15T02:47:27.272Z,20.95
2019-01-15T02:47:58.894Z,20.95
2019-01-15T02:48:30.572Z,20.96
2019-01-15T02:49:02.207Z,20.98
2019-01-15T02:49:33.804Z,20.98
2019-01-15T02:50:05.396Z,20.99
2019-01-15T02:50:37.038Z,21.00
2019-01-15T02:51:08.665Z,21.02
2019-01-15T02:51:40.284Z,21.02
2019-01-15T02:52:11.946Z,21.04
2019-01-15T02:52:43.565Z,21.04
2019-01-15T02:53:15.180Z,21.05
2019-01-15T02:53:46.801Z,21.05
2019-01-15T02:54:18.432Z,21.06
2019-01-15T02:54:50.041Z,21.08
2019-01-15T02:55:21.661Z,21.09
2019-01-15T02:55:53.265Z,21.10
2019-01-15T02:56:24.863Z,21.11
2019-01-15T02:56:56.476Z,21.13
2019-01-15T02:57:28.077Z,21.13
2019-01-15T02:57:59.705Z,21.13
2019-01-15T02:58:31.323Z,21.13
2019-01-15T02:59:02.939Z,21.13
2019-01-15T02:59:34.587Z,21.13
2019-01-15T03:00:06.228Z,21.14
2019-01-15T03:00:37.833Z,21.05
2019-01-15T03:01:09.451Z,21.16
2019-01-15T03:01:41.106Z,21.18
2019-01-15T03:02:12.741Z,21.19
2019-01-15T03:02:44.346Z,21.18
2019-01-15T03:03:15.955Z,21.20
2019-01-15T03:03:47.575Z,21.22
2019-01-15T03:04:19.208Z,21.11
2019-01-15T03:04:50.825Z,21.23
2019-01-15T03:05:22.446Z,21.26
2019-01-15T03:05:54.059Z,21.26
2019-01-15T03:06:25.707Z,21.27
2019-01-15T03:06:57.325Z,21.27
2019-01-15T03:07:28.941Z,21.28
2019-01-15T03:08:00.560Z,21.29
2019-01-15T03:08:32.163Z,21.28
2019-01-15T03:09:03.767Z,21.31
2019-01-15T03:09:35.367Z,21.33
2019-01-15T03:10:06.988Z,21.34
2019-01-15T03:10:38.656Z,21.35
2019-01-15T03:11:10.248Z,21.34
2019-01-15T03:11:41.862Z,21.35
2019-01-15T03:12:13.470Z,21.35
2019-01-15T03:12:45.091Z,21.36
2019-01-15T03:13:16.730Z,21.35
2019-01-15T03:13:48.353Z,21.35
2019-01-15T03:14:19.967Z,21.34
2019-01-15T03:14:51.576Z,21.29
2019-01-15T03:15:23.200Z,21.30
2019-01-15T03:15:54.807Z,21.29
2019-01-15T03:16:26.437Z,21.27
2019-01-15T03:16:58.084Z,21.21
2019-01-15T03:17:29.718Z,21.25
2019-01-15T03:18:01.368Z,21.26
2019-01-15T03:18:32.996Z,21.27
2019-01-15T03:19:04.618Z,21.23
2019-01-15T03:19:36.228Z,21.20
2019-01-15T03:20:07.847Z,21.19
2019-01-15T03:20:39.484Z,21.18
2019-01-15T03:21:11.107Z,21.17
2019-01-15T03:21:42.715Z,21.17
2019-01-15T03:22:14.337Z,21.16
2019-01-15T03:22:45.948Z,21.15
2019-01-15T03:23:17.556Z,21.12
2019-01-15T03:23:49.183Z,21.10
2019-01-15T03:24:20.805Z,21.08
2019-01-15T03:24:52.410Z,21.07
2019-01-15T03:25:24.045Z,21.07
2019-01-15T03:25:55.662Z,21.05
2019-01-15T03:26:27.291Z,21.06
2019-01-15T03:26:58.907Z,21.06
2019-01-15T03:27:30.525Z,21.06
2019-01-15T03:28:02.143Z,21.07
2019-01-15T03:28:33.806Z,21.08
2019-01-15T03:29:05.428Z,21.09
2019-01-15T03:29:37.074Z,21.09
2019-01-15T03:30:08.687Z,21.08
2019-01-15T03:30:40.309Z,21.06
2019-01-15T03:31:11.931Z,21.06
2019-01-15T03:31:43.599Z,21.05
2019-01-15T03:32:15.230Z,21.05
2019-01-15T03:32:46.845Z,21.06
2019-01-15T03:33:18.470Z,21.05
2019-01-15T03:33:50.101Z,21.06
2019-01-15T03:34:21.713Z,21.07
2019-01-15T03:34:53.318Z,21.03
2019-01-15T03:35:24.931Z,21.08
2019-01-15T03:35:56.579Z,21.09
2019-01-15T03:36:28.204Z,21.08
2019-01-15T03:36:59.806Z,21.09
2019-01-15T03:37:31.418Z,21.08
2019-01-15T03:38:03.040Z,21.08
2019-01-15T03:38:34.673Z,21.10
2019-01-15T03:39:06.297Z,21.10
2019-01-15T03:39:38.437Z,21.10
2019-01-15T03:40:10.057Z,21.11
2019-01-15T03:40:41.729Z,21.14
2019-01-15T03:41:13.354Z,21.23
2019-01-15T03:41:44.989Z,21.16
2019-01-15T03:42:16.603Z,21.21
2019-01-15T03:42:48.200Z,21.16
2019-01-15T03:43:19.816Z,21.10
2019-01-15T03:43:51.451Z,21.04
2019-01-15T03:44:23.069Z,20.98
2019-01-15T03:44:54.694Z,20.93
2019-01-15T03:45:26.347Z,20.87
2019-01-15T03:46:04.152Z,20.83
2019-01-15T03:46:29.665Z,20.79
2019-01-15T03:47:01.295Z,20.76
2019-01-15T03:47:32.920Z,20.73
2019-01-15T03:48:04.540Z,20.71
2019-01-15T03:48:36.150Z,20.70
2019-01-15T03:49:07.760Z,20.69
2019-01-15T03:49:39.401Z,20.68
2019-01-15T03:50:11.026Z,20.69
2019-01-15T03:50:42.655Z,20.05
2019-01-15T03:51:14.278Z,19.40
2019-01-15T03:51:45.899Z,18.71
2019-01-15T03:52:17.523Z,18.30
2019-01-15T03:52:49.134Z,18.10
2019-01-15T03:53:20.748Z,17.78
2019-01-15T03:53:52.364Z,17.46
2019-01-15T03:54:23.988Z,17.14
2019-01-15T03:54:55.619Z,16.88
2019-01-15T03:55:27.243Z,16.81
2019-01-15T03:55:58.884Z,16.76
2019-01-15T03:56:30.497Z,16.72
2019-01-15T03:57:02.121Z,16.76
2019-01-15T03:57:33.722Z,16.89
2019-01-15T03:58:05.328Z,16.84
2019-01-15T03:58:36.947Z,16.79
2019-01-15T03:59:08.555Z,16.71
2019-01-15T03:59:40.148Z,16.54
2019-01-15T04:00:11.779Z,16.58
2019-01-15T04:00:43.412Z,16.94
2019-01-15T04:01:15.059Z,17.37
2019-01-15T04:01:46.706Z,17.80
2019-01-15T04:02:18.307Z,18.18
2019-01-15T04:02:49.941Z,18.55
2019-01-15T04:03:21.550Z,18.91
2019-01-15T04:03:53.155Z,19.24
2019-01-15T04:04:24.834Z,19.50
2019-01-15T04:04:56.439Z,19.73
2019-01-15T04:05:28.049Z,19.89
2019-01-15T04:05:59.705Z,20.05
2019-01-15T04:06:31.332Z,20.16
2019-01-15T04:07:02.942Z,20.27
2019-01-15T04:07:34.593Z,20.37
2019-01-15T04:08:06.184Z,20.46
2019-01-15T04:08:37.790Z,20.55
2019-01-15T04:09:09.415Z,20.61
2019-01-15T04:09:41.030Z,20.68
2019-01-15T04:10:12.662Z,20.73
2019-01-15T04:10:44.275Z,20.77
2019-01-15T04:11:15.892Z,20.82
2019-01-15T04:11:47.502Z,20.86
2019-01-15T04:12:19.119Z,20.89
2019-01-15T04:12:50.726Z,20.94
2019-01-15T04:13:22.349Z,20.96
2019-01-15T04:13:53.958Z,21.00
2019-01-15T04:14:25.581Z,21.03
2019-01-15T04:14:57.207Z,21.05
2019-01-15T04:15:28.853Z,21.09
2019-01-15T04:16:00.470Z,21.11
2019-01-15T04:16:32.077Z,21.14
2019-01-15T04:17:03.689Z,21.14
2019-01-15T04:17:35.304Z,21.16
2019-01-15T04:18:06.912Z,21.18
2019-01-15T04:18:38.513Z,21.20
2019-01-15T04:19:10.123Z,21.22
2019-01-15T04:19:41.738Z,21.23
2019-01-15T04:20:13.378Z,21.25
2019-01-15T04:20:44.997Z,21.26
2019-01-15T04:21:16.607Z,21.28
2019-01-15T04:21:48.222Z,21.30
2019-01-15T04:22:19.843Z,21.32
2019-01-15T04:22:51.468Z,21.34
2019-01-15T04:23:23.087Z,21.36
2019-01-15T04:23:54.704Z,21.38
2019-01-15T04:24:26.358Z,21.39
2019-01-15T04:24:58.025Z,21.16
2019-01-15T04:25:29.635Z,21.39
2019-01-15T04:26:01.230Z,21.39
2019-01-15T04:26:32.843Z,21.38
2019-01-15T04:27:04.467Z,21.40
2019-01-15T04:27:36.063Z,21.41
2019-01-15T04:28:07.693Z,21.43
2019-01-15T04:28:39.324Z,21.43
2019-01-15T04:29:10.944Z,21.44
2019-01-15T04:29:42.566Z,21.45
2019-01-15T04:30:14.247Z,21.24
2019-01-15T04:30:45.863Z,21.47
2019-01-15T04:31:17.476Z,21.46
2019-01-15T04:31:49.096Z,21.48
2019-01-15T04:32:20.728Z,21.48
2019-01-15T04:32:52.339Z,21.49
2019-01-15T04:33:23.958Z,21.50
2019-01-15T04:33:55.578Z,21.50
2019-01-15T04:34:27.215Z,21.50
2019-01-15T04:34:58.837Z,21.50
2019-01-15T04:35:30.508Z,21.49
2019-01-15T04:36:02.124Z,21.47
2019-01-15T04:36:33.727Z,21.51
2019-01-15T04:37:05.363Z,21.52
2019-01-15T04:37:36.988Z,21.53
2019-01-15T04:38:08.600Z,21.53
2019-01-15T04:38:40.209Z,21.53
2019-01-15T04:39:11.828Z,21.53
2019-01-15T04:39:43.434Z,21.52
2019-01-15T04:40:15.031Z,21.52
2019-01-15T04:40:46.635Z,21.52
2019-01-15T04:41:18.245Z,21.53
2019-01-15T04:41:49.855Z,21.53
2019-01-15T04:42:21.471Z,21.53
2019-01-15T04:42:53.153Z,21.54
2019-01-15T04:43:24.792Z,21.53
2019-01-15T04:43:56.403Z,21.53
2019-01-15T04:44:28.012Z,21.53
2019-01-15T04:44:59.672Z,21.52
2019-01-15T04:45:31.337Z,21.52
2019-01-15T04:46:02.942Z,21.51
2019-01-15T04:46:34.558Z,21.51
2019-01-15T04:47:06.181Z,21.49
2019-01-15T04:47:37.835Z,21.48
2019-01-15T04:48:09.453Z,21.47
2019-01-15T04:48:41.063Z,21.46
2019-01-15T04:49:12.681Z,21.46
2019-01-15T04:49:44.314Z,21.44
2019-01-15T04:50:15.943Z,21.43
2019-01-15T04:50:47.546Z,21.44
2019-01-15T04:51:19.212Z,21.43
2019-01-15T04:51:50.837Z,21.43
2019-01-15T04:52:22.446Z,21.42
2019-01-15T04:52:54.069Z,21.43
2019-01-15T04:53:25.687Z,21.42
2019-01-15T04:53:57.301Z,21.41
2019-01-15T04:54:28.896Z,21.40
2019-01-15T04:55:00.513Z,21.40
2019-01-15T04:55:32.141Z,21.39
2019-01-15T04:56:03.751Z,21.39
2019-01-15T04:56:35.412Z,21.39
2019-01-15T04:57:07.054Z,21.39
2019-01-15T04:57:38.724Z,21.37
2019-01-15T04:58:10.334Z,21.37
2019-01-15T04:58:41.956Z,21.35
2019-01-15T04:59:13.579Z,21.35
2019-01-15T04:59:45.219Z,21.33
2019-01-15T05:00:16.905Z,21.32
2019-01-15T05:00:48.520Z,21.31
2019-01-15T05:01:20.151Z,21.29
2019-01-15T05:01:51.791Z,21.28
2019-01-15T05:02:23.397Z,21.27
2019-01-15T05:02:55.022Z,21.25
2019-01-15T05:03:26.652Z,21.23
2019-01-15T05:03:58.246Z,21.22
2019-01-15T05:04:29.854Z,21.20
2019-01-15T05:05:01.454Z,21.18
2019-01-15T05:05:33.093Z,21.16
2019-01-15T05:06:04.718Z,21.14
2019-01-15T05:06:36.339Z,21.01
2019-01-15T05:07:07.965Z,21.10
2019-01-15T05:07:39.584Z,21.08
2019-01-15T05:08:11.205Z,21.07
2019-01-15T05:08:42.810Z,21.05
2019-01-15T05:09:14.411Z,21.03
2019-01-15T05:09:46.022Z,21.01
2019-01-15T05:10:17.644Z,21.00
2019-01-15T05:10:49.263Z,20.97
2019-01-15T05:11:20.879Z,20.95
2019-01-15T05:11:52.490Z,20.92
2019-01-15T05:12:24.113Z,20.91
2019-01-15T05:12:55.772Z,20.88
2019-01-15T05:13:27.720Z,20.86
2019-01-15T05:13:59.053Z,20.85
2019-01-15T05:14:30.670Z,20.82
2019-01-15T05:15:02.297Z,20.81
2019-01-15T05:15:33.914Z,20.79
2019-01-15T05:16:05.541Z,20.77
2019-01-15T05:16:37.156Z,20.75
2019-01-15T05:17:08.771Z,20.74
2019-01-15T05:17:40.436Z,20.72
2019-01-15T05:18:12.060Z,20.71
2019-01-15T05:18:43.676Z,20.69
2019-01-15T05:19:15.282Z,20.68
2019-01-15T05:19:46.889Z,20.65
2019-01-15T05:20:18.496Z,20.64
2019-01-15T05:20:50.101Z,20.63
2019-01-15T05:21:21.690Z,20.39
2019-01-15T05:21:53.306Z,20.59
2019-01-15T05:22:24.901Z,20.57
2019-01-15T05:22:56.568Z,20.56
2019-01-15T05:23:28.180Z,20.55
2019-01-15T05:23:59.780Z,20.54
2019-01-15T05:24:31.381Z,20.52
2019-01-15T05:25:03.004Z,20.50
2019-01-15T05:25:34.644Z,20.49
2019-01-15T05:26:06.278Z,20.48
2019-01-15T05:26:37.901Z,20.47
2019-01-15T05:27:09.537Z,20.46
2019-01-15T05:27:41.141Z,20.46
2019-01-15T05:28:12.753Z,20.47
2019-01-15T05:28:44.365Z,20.45
2019-01-15T05:29:15.958Z,20.46
2019-01-15T05:29:47.558Z,20.46
2019-01-15T05:30:19.169Z,20.45
2019-01-15T05:30:50.786Z,20.44
2019-01-15T05:31:22.406Z,20.43
2019-01-15T05:31:54.006Z,20.43
2019-01-15T05:32:25.623Z,20.43
2019-01-15T05:32:57.272Z,20.43
2019-01-15T05:33:28.880Z,20.43
2019-01-15T05:34:00.481Z,20.44
2019-01-15T05:34:32.099Z,20.44
2019-01-15T05:35:03.705Z,20.44
2019-01-15T05:35:35.325Z,20.45
2019-01-15T05:36:06.963Z,20.46
2019-01-15T05:36:38.586Z,20.48
2019-01-15T05:37:10.195Z,20.49
2019-01-15T05:37:41.805Z,20.51
2019-01-15T05:38:13.429Z,20.52
2019-01-15T05:38:45.049Z,20.54
2019-01-15T05:39:16.683Z,20.55
2019-01-15T05:39:48.284Z,20.57
2019-01-15T05:40:19.891Z,20.58
2019-01-15T05:40:51.495Z,20.59
2019-01-15T05:41:23.105Z,20.62
2019-01-15T05:41:54.765Z,20.64
2019-01-15T05:42:26.399Z,20.66
2019-01-15T05:42:58.018Z,20.68
2019-01-15T05:43:35.552Z,20.70
2019-01-15T05:44:01.365Z,20.73
2019-01-15T05:44:32.985Z,20.73
2019-01-15T05:45:04.597Z,20.76
2019-01-15T05:45:36.210Z,20.78
2019-01-15T05:46:07.825Z,20.80
2019-01-15T05:46:39.432Z,20.84
2019-01-15T05:47:11.045Z,20.86
2019-01-15T05:47:42.648Z,20.89
2019-01-15T05:48:14.250Z,20.90
2019-01-15T05:48:45.916Z,20.92
2019-01-15T05:49:17.517Z,20.83
2019-01-15T05:49:50.705Z,20.95
2019-01-15T05:50:21.307Z,20.98
2019-01-15T05:50:52.918Z,21.00
2019-01-15T05:51:25.124Z,21.00
2019-01-15T05:51:56.739Z,21.02
2019-01-15T05:52:28.396Z,21.04
2019-01-15T05:53:00.021Z,21.05
2019-01-15T05:53:31.654Z,21.06
2019-01-15T05:54:03.270Z,21.06
2019-01-15T05:54:34.882Z,21.06
2019-01-15T05:55:06.509Z,21.06
2019-01-15T05:55:38.170Z,21.09
2019-01-15T05:56:09.786Z,21.10
2019-01-15T05:56:41.407Z,21.11
2019-01-15T05:57:13.015Z,21.12
2019-01-15T05:57:44.604Z,21.11
2019-01-15T05:58:16.222Z,21.11
2019-01-15T05:58:47.831Z,21.12
2019-01-15T05:59:19.482Z,21.12
2019-01-15T05:59:51.141Z,21.13
2019-01-15T06:00:22.742Z,21.13
2019-01-15T06:00:54.338Z,21.14
2019-01-15T06:01:25.960Z,21.14
2019-01-15T06:01:57.566Z,21.16
2019-01-15T06:02:29.215Z,21.16
2019-01-15T06:03:00.823Z,20.93
2019-01-15T06:03:32.417Z,21.16
2019-01-15T06:04:04.030Z,21.16
2019-01-15T06:04:35.700Z,21.16
2019-01-15T06:05:07.306Z,21.17
2019-01-15T06:05:38.964Z,21.17
2019-01-15T06:06:10.571Z,21.16
2019-01-15T06:06:42.174Z,21.17
2019-01-15T06:07:13.816Z,21.17
2019-01-15T06:07:45.423Z,21.17
2019-01-15T06:08:17.045Z,21.16
2019-01-15T06:08:48.712Z,21.17
2019-01-15T06:09:20.340Z,21.17
2019-01-15T06:09:51.946Z,21.18
2019-01-15T06:10:23.550Z,21.18
2019-01-15T06:10:55.176Z,21.18
2019-01-15T06:11:26.791Z,21.20
2019-01-15T06:11:58.386Z,21.20
2019-01-15T06:12:29.997Z,21.22
2019-01-15T06:13:01.616Z,21.21
2019-01-15T06:13:33.222Z,21.20
2019-01-15T06:14:04.881Z,21.21
2019-01-15T06:14:36.490Z,21.21
2019-01-15T06:15:08.117Z,21.20
2019-01-15T06:15:39.737Z,21.20
2019-01-15T06:16:11.360Z,21.20
2019-01-15T06:16:43.013Z,21.19
2019-01-15T06:17:14.604Z,21.20
2019-01-15T06:17:46.233Z,21.20
2019-01-15T06:18:17.868Z,21.20
2019-01-15T06:18:49.468Z,21.20
2019-01-15T06:19:21.071Z,21.20
2019-01-15T06:19:52.686Z,21.22
2019-01-15T06:20:24.434Z,21.21
2019-01-15T06:20:56.038Z,21.21
2019-01-15T06:21:27.643Z,21.24
2019-01-15T06:21:59.259Z,21.23
2019-01-15T06:22:30.858Z,21.24
2019-01-15T06:23:02.457Z,21.22
2019-01-15T06:23:34.076Z,21.23
2019-01-15T06:24:05.686Z,21.22
2019-01-15T06:24:37.291Z,21.23
2019-01-15T06:25:08.916Z,21.22
2019-01-15T06:25:40.537Z,21.22
2019-01-15T06:26:12.191Z,21.21
2019-01-15T06:26:43.812Z,21.19
2019-01-15T06:27:15.435Z,21.17
2019-01-15T06:27:47.031Z,21.17
2019-01-15T06:28:18.652Z,21.16
2019-01-15T06:28:50.243Z,21.16
2019-01-15T06:29:21.867Z,21.05
2019-01-15T06:29:53.490Z,21.14
2019-01-15T06:30:25.095Z,21.14
2019-01-15T06:30:56.714Z,21.13
2019-01-15T06:31:28.357Z,21.12
2019-01-15T06:31:59.975Z,21.12
2019-01-15T06:32:31.578Z,21.10
2019-01-15T06:33:03.186Z,21.11
2019-01-15T06:33:34.796Z,21.11
2019-01-15T06:34:06.409Z,21.10
2019-01-15T06:34:38.024Z,21.09
2019-01-15T06:35:09.634Z,21.07
2019-01-15T06:35:41.266Z,21.07
2019-01-15T06:36:12.924Z,21.06
2019-01-15T06:36:44.542Z,21.06
2019-01-15T06:37:16.161Z,21.05
2019-01-15T06:37:47.772Z,21.05
2019-01-15T06:38:19.393Z,21.04
2019-01-15T06:38:51.039Z,21.02
2019-01-15T06:39:22.645Z,20.90
2019-01-15T06:39:54.254Z,21.00
2019-01-15T06:40:25.854Z,21.00
2019-01-15T06:40:57.448Z,21.00
2019-01-15T06:41:29.064Z,20.98
2019-01-15T06:42:00.714Z,20.98
2019-01-15T06:42:32.332Z,20.97
2019-01-15T06:43:03.964Z,20.95
2019-01-15T06:43:35.557Z,20.94
2019-01-15T06:44:07.169Z,20.94
2019-01-15T06:44:38.779Z,20.92
2019-01-15T06:45:10.391Z,20.92
2019-01-15T06:45:42.013Z,20.92
2019-01-15T06:46:13.618Z,20.89
2019-01-15T06:46:45.285Z,20.88
2019-01-15T06:47:16.905Z,20.88